createdAt,value
2018-06-29T00:00:14.560Z,2.25
2018-06-29T00:02:44.456Z,2.00
2018-06-29T00:05:12.161Z,1.80
2018-06-29T00:07:39.999Z,2.52
2018-06-29T00:10:18.649Z,2.10
2018-06-29T00:12:46.612Z,1.90
2018-06-29T00:15:16.549Z,2.58
2018-06-29T00:17:44.526Z,2.15
2018-06-29T00:20:12.452Z,2.17
2018-06-29T00:35:59.112Z,2.20
2018-06-29T00:38:26.863Z,2.00
2018-06-29T00:40:54.675Z,2.10
2018-06-29T00:43:59.510Z,2.10
2018-06-29T00:46:27.287Z,2.20
2018-06-29T00:49:25.677Z,2.58
2018-06-29T00:51:53.579Z,2.33
2018-06-29T00:54:31.561Z,2.05
2018-06-29T00:56:59.501Z,1.95
2018-06-29T00:59:27.388Z,2.25
2018-06-29T01:01:55.235Z,2.58
2018-06-29T01:04:23.050Z,2.50
2018-06-29T01:06:56.112Z,2.50
2018-06-29T01:09:23.900Z,2.33
2018-06-29T01:11:53.697Z,2.95
2018-06-29T01:14:21.519Z,2.85
2018-06-29T01:16:50.351Z,2.90
2018-06-29T01:19:18.175Z,2.62
2018-06-29T01:21:56.991Z,2.80
2018-06-29T01:53:47.295Z,3.80
2018-06-29T01:56:15.252Z,3.42
2018-06-29T01:58:43.023Z,3.92
2018-06-29T02:03:43.667Z,3.90
2018-06-29T02:06:11.699Z,4.00
2018-06-29T02:08:39.593Z,3.62
2018-06-29T02:11:08.549Z,3.47
2018-06-29T02:31:30.075Z,3.42
2018-06-29T02:33:57.913Z,3.90
2018-06-29T02:36:27.912Z,3.30
2018-06-29T02:38:55.731Z,3.60
2018-06-29T02:41:23.709Z,3.17
2018-06-29T02:43:51.955Z,3.40
2018-06-29T02:46:19.827Z,3.15
2018-06-29T02:48:47.667Z,3.52
2018-06-29T02:51:24.492Z,2.98
2018-06-29T02:53:52.312Z,3.35
2018-06-29T02:56:23.589Z,3.45
2018-06-29T02:58:51.559Z,3.37
2018-06-29T03:01:19.428Z,4.00
2018-06-29T03:21:52.135Z,4.87
2018-06-29T03:24:19.968Z,4.70
2018-06-29T03:26:48.831Z,4.05
2018-06-29T03:29:16.636Z,4.45
2018-06-29T03:31:45.514Z,4.35
2018-06-29T03:34:13.347Z,4.45
2018-06-29T03:36:44.773Z,4.47
2018-06-29T03:39:12.601Z,4.78
2018-06-29T03:41:45.446Z,4.60
2018-06-29T03:44:13.252Z,4.70
2018-06-29T03:50:08.297Z,5.15
2018-06-29T03:52:36.064Z,4.70
2018-06-29T03:55:45.020Z,4.92
2018-06-29T03:58:12.882Z,5.17
2018-06-29T04:00:44.622Z,5.35
2018-06-29T04:03:12.488Z,5.20
2018-06-29T04:05:40.338Z,4.90
2018-06-29T04:08:08.140Z,4.60
2018-06-29T04:10:36.971Z,4.47
2018-06-29T04:13:04.954Z,5.03
2018-06-29T04:15:32.826Z,4.65
2018-06-29T04:18:00.606Z,4.55
2018-06-29T04:20:28.452Z,3.92
2018-06-29T04:22:57.489Z,4.05
2018-06-29T04:25:25.323Z,3.83
2018-06-29T04:27:53.187Z,3.92
2018-06-29T04:30:21.018Z,4.20
2018-06-29T04:32:50.009Z,3.12
2018-06-29T04:35:17.775Z,3.05
2018-06-29T04:37:45.705Z,2.90
2018-06-29T04:40:13.647Z,3.50
2018-06-29T04:55:06.326Z,2.17
2018-06-29T04:57:35.192Z,1.72
2018-06-29T05:00:03.387Z,3.45
2018-06-29T05:02:31.273Z,2.20
2018-06-29T05:04:59.075Z,2.50
2018-06-29T05:07:27.115Z,2.77
2018-06-29T05:09:54.898Z,2.02
2018-06-29T05:12:22.671Z,1.82
2018-06-29T05:14:51.131Z,1.62
2018-06-29T05:17:18.916Z,1.40
2018-06-29T05:19:46.870Z,1.80
2018-06-29T05:22:15.602Z,2.22
2018-06-29T05:24:43.394Z,1.65
2018-06-29T05:27:11.183Z,3.72
2018-06-29T05:29:38.920Z,1.57
2018-06-29T05:32:06.704Z,1.55
2018-06-29T05:34:34.519Z,2.35
2018-06-29T05:37:02.316Z,1.50
2018-06-29T05:39:30.111Z,1.45
2018-06-29T05:41:57.939Z,1.12
2018-06-29T05:44:25.704Z,1.40
2018-06-29T05:46:53.589Z,0.98
2018-06-29T05:49:21.388Z,1.17
2018-06-29T05:51:49.204Z,1.17
2018-06-29T05:54:17.036Z,5.85
2018-06-29T05:56:44.774Z,1.50
2018-06-29T05:59:12.644Z,1.22
2018-06-29T06:01:55.743Z,0.98
2018-06-29T06:05:03.349Z,1.10
2018-06-29T06:07:31.890Z,0.90
2018-06-29T06:09:59.731Z,0.72
2018-06-29T06:12:27.490Z,0.88
2018-06-29T06:14:55.385Z,0.90
2018-06-29T06:17:23.217Z,0.80
2018-06-29T06:20:05.566Z,0.98
2018-06-29T06:22:33.739Z,1.20
2018-06-29T06:25:01.635Z,1.17
2018-06-29T06:27:29.513Z,0.95
2018-06-29T06:29:57.581Z,1.10
2018-06-29T06:32:25.485Z,0.90
2018-06-29T06:34:53.225Z,0.75
2018-06-29T06:37:20.996Z,0.90
2018-06-29T06:39:48.800Z,1.47
2018-06-29T06:42:16.677Z,1.10
2018-06-29T06:44:44.565Z,1.00
2018-06-29T06:47:12.359Z,1.22
2018-06-29T06:49:40.122Z,0.90
2018-06-29T06:52:07.966Z,1.20
2018-06-29T06:54:35.715Z,0.98
2018-06-29T06:57:04.002Z,0.90
2018-06-29T06:59:31.840Z,1.10
2018-06-29T07:01:59.618Z,1.17
2018-06-29T07:04:27.401Z,1.70
2018-06-29T07:06:55.143Z,1.60
2018-06-29T07:09:22.922Z,2.10
2018-06-29T07:11:50.723Z,1.95
2018-06-29T07:14:18.510Z,2.30
2018-06-29T07:16:46.305Z,2.50
2018-06-29T07:19:14.099Z,2.70
2018-06-29T07:21:41.853Z,1.90
2018-06-29T07:24:09.814Z,2.90
2018-06-29T07:26:37.856Z,3.00
2018-06-29T07:29:05.981Z,2.90
2018-06-29T07:31:33.855Z,3.17
2018-06-29T07:34:01.636Z,3.75
2018-06-29T07:36:29.482Z,3.20
2018-06-29T07:38:58.300Z,2.77
2018-06-29T07:41:26.094Z,3.10
2018-06-29T07:43:53.927Z,5.37
2018-06-29T07:46:21.682Z,3.80
2018-06-29T07:48:49.474Z,3.45
2018-06-29T07:51:17.286Z,4.05
2018-06-29T07:53:46.080Z,3.12
2018-06-29T07:56:13.937Z,4.60
2018-06-29T07:58:41.816Z,2.98
2018-06-29T08:01:09.482Z,3.22
2018-06-29T08:03:37.274Z,3.17
2018-06-29T08:06:05.114Z,3.20
2018-06-29T08:08:32.896Z,2.83
2018-06-29T08:11:00.637Z,3.70
2018-06-29T08:13:28.680Z,3.30
2018-06-29T08:15:56.481Z,3.30
2018-06-29T08:18:24.635Z,4.87
2018-06-29T08:20:52.445Z,2.77
2018-06-29T08:23:21.056Z,2.95
2018-06-29T08:25:48.849Z,3.10
2018-06-29T08:28:16.675Z,2.52
2018-06-29T08:30:44.519Z,2.95
2018-06-29T08:33:12.276Z,3.80
2018-06-29T08:35:40.068Z,2.33
2018-06-29T08:38:07.885Z,2.40
2018-06-29T08:40:35.602Z,2.65
2018-06-29T08:43:03.353Z,2.87
2018-06-29T08:45:31.125Z,3.20
2018-06-29T08:47:58.869Z,2.80
2018-06-29T08:50:26.613Z,2.92
2018-06-29T08:52:54.388Z,3.20
2018-06-29T08:55:22.176Z,2.80
2018-06-29T08:57:49.960Z,2.83
2018-06-29T09:00:17.691Z,2.95
2018-06-29T09:02:45.468Z,3.47
2018-06-29T09:05:13.225Z,2.95
2018-06-29T09:07:41.021Z,3.42
2018-06-29T09:10:08.821Z,2.27
2018-06-29T09:12:53.852Z,2.67
2018-06-29T09:17:54.567Z,2.55
2018-06-29T09:20:22.335Z,2.15
2018-06-29T09:22:50.121Z,2.42
2018-06-29T09:25:17.925Z,3.02
2018-06-29T09:27:45.746Z,2.95
2018-06-29T09:30:13.567Z,2.70
2018-06-29T09:32:41.360Z,3.65
2018-06-29T09:35:09.299Z,2.70
2018-06-29T09:37:37.062Z,2.95
2018-06-29T09:40:04.928Z,3.08
2018-06-29T09:42:32.771Z,2.25
2018-06-29T09:45:00.626Z,3.35
2018-06-29T09:47:28.657Z,2.92
2018-06-29T09:49:56.430Z,3.52
2018-06-29T09:52:24.201Z,3.20
2018-06-29T09:54:51.959Z,2.58
2018-06-29T09:57:19.717Z,2.75
2018-06-29T09:59:47.512Z,4.55
2018-06-29T10:02:15.289Z,2.87
2018-06-29T10:04:43.107Z,3.10
2018-06-29T10:07:10.883Z,2.77
2018-06-29T10:09:38.630Z,2.83
2018-06-29T10:12:06.489Z,3.47
2018-06-29T10:14:34.303Z,2.83
2018-06-29T10:17:02.057Z,3.55
2018-06-29T10:19:29.918Z,3.52
2018-06-29T10:22:37.383Z,2.90
2018-06-29T10:25:16.125Z,3.00
2018-06-29T10:27:44.004Z,2.52
2018-06-29T10:30:11.873Z,3.55
2018-06-29T10:32:39.625Z,2.60
2018-06-29T10:35:07.776Z,3.58
2018-06-29T10:37:35.612Z,2.58
2018-06-29T10:40:04.601Z,3.33
2018-06-29T10:42:32.305Z,5.50
2018-06-29T10:45:00.126Z,3.08
2018-06-29T10:47:27.926Z,3.37
2018-06-29T10:49:55.882Z,3.58
2018-06-29T10:53:12.398Z,3.05
2018-06-29T10:55:40.256Z,2.72
2018-06-29T10:58:08.325Z,3.20
2018-06-29T11:00:36.135Z,3.17
2018-06-29T11:03:04.361Z,3.77
2018-06-29T11:05:32.211Z,3.62
2018-06-29T11:07:59.988Z,3.15
2018-06-29T11:10:27.738Z,3.10
2018-06-29T11:12:55.552Z,2.77
2018-06-29T11:15:23.357Z,3.90
2018-06-29T11:17:51.125Z,2.83
2018-06-29T11:20:20.182Z,4.20
2018-06-29T11:22:47.954Z,3.62
2018-06-29T11:25:15.818Z,3.40
2018-06-29T11:27:43.580Z,3.00
2018-06-29T11:30:11.345Z,3.95
2018-06-29T11:32:39.107Z,3.75
2018-06-29T11:35:06.889Z,3.10
2018-06-29T11:37:34.663Z,3.47
2018-06-29T11:40:02.543Z,3.45
2018-06-29T11:42:30.332Z,3.87
2018-06-29T11:44:58.124Z,3.15
2018-06-29T11:47:25.906Z,3.25
2018-06-29T11:49:53.836Z,3.67
2018-06-29T11:52:21.615Z,3.55
2018-06-29T11:54:49.353Z,2.55
2018-06-29T11:57:17.143Z,2.95
2018-06-29T11:59:44.942Z,2.95
2018-06-29T12:02:12.717Z,2.83
2018-06-29T12:04:40.537Z,3.30
2018-06-29T12:07:08.301Z,2.50
2018-06-29T12:09:36.201Z,2.40
2018-06-29T12:12:04.037Z,3.00
2018-06-29T12:14:31.869Z,2.35
2018-06-29T12:16:59.621Z,2.62
2018-06-29T12:19:27.409Z,2.42
2018-06-29T12:21:55.165Z,2.67
2018-06-29T12:24:23.814Z,1.75
2018-06-29T12:26:52.287Z,2.40
2018-06-29T12:29:20.327Z,1.80
2018-06-29T12:31:48.086Z,1.82
2018-06-29T12:34:15.916Z,2.62
2018-06-29T12:36:43.746Z,3.25
2018-06-29T12:39:11.696Z,3.75
2018-06-29T12:41:39.534Z,2.42
2018-06-29T12:44:07.493Z,3.02
2018-06-29T12:46:35.252Z,3.20
2018-06-29T12:49:03.121Z,4.03
2018-06-29T12:51:30.962Z,3.45
2018-06-29T12:53:58.861Z,4.00
2018-06-29T12:57:10.100Z,3.35
2018-06-29T12:59:38.970Z,3.37
2018-06-29T13:02:06.925Z,3.55
2018-06-29T13:04:34.730Z,4.55
2018-06-29T13:07:02.593Z,5.05
2018-06-29T13:09:30.440Z,5.17
2018-06-29T13:11:58.215Z,5.33
2018-06-29T13:14:25.950Z,5.58
2018-06-29T13:16:53.781Z,6.22
2018-06-29T13:19:21.584Z,5.72
2018-06-29T13:21:49.555Z,5.65
2018-06-29T13:24:25.219Z,5.70
2018-06-29T13:26:52.990Z,5.97
2018-06-29T13:29:20.731Z,6.70
2018-06-29T13:31:48.507Z,6.35
2018-06-29T13:34:16.291Z,5.15
2018-06-29T13:36:44.080Z,6.55
2018-06-29T13:39:11.842Z,6.55
2018-06-29T13:41:39.667Z,6.22
2018-06-29T13:44:07.476Z,6.62
2018-06-29T13:46:35.308Z,6.62
2018-06-29T13:49:03.211Z,5.83
2018-06-29T13:51:31.024Z,6.12
2018-06-29T13:53:58.772Z,5.60
2018-06-29T13:56:26.665Z,5.17
2018-06-29T13:58:54.421Z,6.42
2018-06-29T14:01:22.231Z,5.90
2018-06-29T14:03:49.980Z,5.58
2018-06-29T14:06:17.700Z,5.28
2018-06-29T14:08:45.494Z,4.62
2018-06-29T14:11:13.240Z,4.58
2018-06-29T14:13:40.978Z,4.53
2018-06-29T14:16:08.755Z,4.33
2018-06-29T14:18:36.513Z,4.90
2018-06-29T14:21:04.295Z,3.75
2018-06-29T14:23:33.100Z,4.00
2018-06-29T14:26:00.880Z,3.00
2018-06-29T14:28:28.691Z,3.87
2018-06-29T14:30:56.475Z,3.12
2018-06-29T14:33:24.471Z,3.37
2018-06-29T14:35:52.407Z,3.60
2018-06-29T14:38:20.358Z,3.30
2018-06-29T14:40:48.400Z,3.27
2018-06-29T14:43:16.261Z,4.50
2018-06-29T14:45:44.235Z,2.42
2018-06-29T14:48:12.129Z,2.30
2018-06-29T14:50:40.165Z,2.15
2018-06-29T14:53:08.073Z,1.98
2018-06-29T14:55:36.039Z,1.52
2018-06-29T14:58:03.981Z,1.72
2018-06-29T15:00:32.048Z,1.90
2018-06-29T15:03:01.180Z,1.77
2018-06-29T15:07:54.329Z,2.22
2018-06-29T15:10:22.156Z,1.55
2018-06-29T15:12:50.013Z,1.62
2018-06-29T15:15:17.791Z,1.90
2018-06-29T15:17:45.596Z,1.40
2018-06-29T15:20:13.404Z,1.12
2018-06-29T15:22:41.158Z,1.50
2018-06-29T15:25:11.044Z,1.82
2018-06-29T15:27:38.844Z,1.65
2018-06-29T15:33:41.508Z,1.52
2018-06-29T15:36:09.305Z,1.90
2018-06-29T15:38:37.077Z,5.58
2018-06-29T15:41:05.001Z,1.40
2018-06-29T15:43:32.789Z,1.10
2018-06-29T15:46:00.590Z,2.10
2018-06-29T15:48:28.349Z,1.50
2018-06-29T15:50:56.099Z,1.80
2018-06-29T15:53:23.891Z,7.95
2018-06-29T15:55:53.878Z,1.20
2018-06-29T15:58:21.688Z,1.30
2018-06-29T16:00:49.445Z,1.25
2018-06-29T16:03:17.450Z,1.70
2018-06-29T16:05:45.234Z,8.23
2018-06-29T16:08:13.062Z,1.92
2018-06-29T16:10:40.935Z,11.15
2018-06-29T16:13:08.831Z,1.62
2018-06-29T16:15:36.679Z,1.65
2018-06-29T16:18:05.132Z,2.27
2018-06-29T16:20:32.977Z,2.17
2018-06-29T16:23:00.844Z,2.15
2018-06-29T16:25:28.622Z,1.52
2018-06-29T16:27:56.441Z,1.42
2018-06-29T16:30:24.260Z,2.02
2018-06-29T16:32:52.025Z,1.98
2018-06-29T16:35:19.833Z,2.10
2018-06-29T16:37:48.617Z,2.02
2018-06-29T16:40:16.441Z,2.25
2018-06-29T16:42:44.301Z,2.50
2018-06-29T16:45:12.080Z,2.58
2018-06-29T16:47:39.936Z,1.95
2018-06-29T16:50:07.739Z,2.12
2018-06-29T16:52:35.640Z,2.72
2018-06-29T16:55:03.522Z,3.00
2018-06-29T16:57:31.494Z,3.15
2018-06-29T17:02:39.935Z,3.17
2018-06-29T17:05:09.035Z,3.72
2018-06-29T17:07:36.851Z,2.90
2018-06-29T17:10:04.757Z,3.20
2018-06-29T17:12:32.628Z,3.70
2018-06-29T17:15:00.404Z,4.35
2018-06-29T17:17:28.259Z,3.60
2018-06-29T17:19:56.142Z,3.17
2018-06-29T17:22:23.806Z,3.08
2018-06-29T17:24:51.620Z,3.12
2018-06-29T17:27:19.445Z,4.17
2018-06-29T17:29:47.260Z,4.80
2018-06-29T17:32:15.064Z,5.20
2018-06-29T17:34:42.921Z,4.75
2018-06-29T17:37:12.728Z,4.83
2018-06-29T17:39:40.481Z,6.47
2018-06-29T17:42:08.834Z,5.62
2018-06-29T17:44:36.673Z,6.00
2018-06-29T17:47:05.464Z,6.75
2018-06-29T17:49:33.297Z,6.25
2018-06-29T17:52:01.086Z,5.28
2018-06-29T17:54:28.923Z,6.33
2018-06-29T17:56:56.724Z,6.75
2018-06-29T17:59:24.443Z,7.10
2018-06-29T18:01:52.244Z,7.50
2018-06-29T18:04:20.044Z,7.78
2018-06-29T18:06:48.002Z,6.05
2018-06-29T18:09:15.870Z,6.58
2018-06-29T18:11:43.672Z,6.55
2018-06-29T18:14:11.556Z,6.33
2018-06-29T18:16:39.292Z,5.70
2018-06-29T18:19:07.052Z,5.85
2018-06-29T18:21:35.870Z,6.22
2018-06-29T18:24:03.637Z,5.42
2018-06-29T18:26:31.417Z,5.33
2018-06-29T18:28:59.199Z,5.05
2018-06-29T18:31:26.948Z,6.00
2018-06-29T18:33:54.675Z,4.70
2018-06-29T18:36:23.603Z,5.50
2018-06-29T18:38:51.551Z,5.10
2018-06-29T18:41:19.452Z,4.67
2018-06-29T18:43:49.196Z,6.20
2018-06-29T18:46:17.018Z,4.80
2018-06-29T18:48:44.962Z,5.12
2018-06-29T18:51:12.718Z,3.83
2018-06-29T18:53:40.447Z,5.45
2018-06-29T18:56:08.246Z,5.15
2018-06-29T18:58:36.039Z,5.42
2018-06-29T19:01:03.806Z,4.87
2018-06-29T19:03:31.593Z,4.50
2018-06-29T19:05:59.574Z,5.33
2018-06-29T19:08:27.441Z,4.97
2018-06-29T19:10:56.044Z,5.22
2018-06-29T19:13:23.813Z,7.10
2018-06-29T19:15:51.601Z,5.50
2018-06-29T19:18:19.430Z,5.10
2018-06-29T19:20:47.249Z,4.47
2018-06-29T19:23:15.032Z,5.35
2018-06-29T19:25:42.871Z,5.20
2018-06-29T19:28:10.651Z,5.97
2018-06-29T19:30:38.501Z,5.47
2018-06-29T19:33:06.592Z,5.35
2018-06-29T19:35:34.445Z,4.83
2018-06-29T19:38:02.263Z,4.90
2018-06-29T19:40:30.088Z,4.67
2018-06-29T19:42:57.843Z,4.67
2018-06-29T19:45:25.660Z,4.67
2018-06-29T19:47:53.483Z,4.78
2018-06-29T19:50:21.332Z,5.30
2018-06-29T19:56:04.809Z,4.30
2018-06-29T19:58:32.720Z,5.10
2018-06-29T20:01:02.597Z,6.47
2018-06-29T20:03:30.465Z,6.00
2018-06-29T20:08:40.892Z,6.60
2018-06-29T20:11:08.775Z,7.75
2018-06-29T20:13:36.631Z,6.67
2018-06-29T20:16:04.671Z,8.13
2018-06-29T20:18:32.579Z,7.95
2018-06-29T20:21:00.717Z,7.50
2018-06-29T20:23:28.582Z,7.87
2018-06-29T20:25:58.447Z,7.70
2018-06-29T20:28:26.489Z,7.80
2018-06-29T20:30:54.346Z,8.13
2018-06-29T20:33:23.346Z,8.33
2018-06-29T20:36:12.166Z,6.97
2018-06-29T20:38:40.270Z,7.60
2018-06-29T20:41:08.095Z,8.20
2018-06-29T20:43:36.182Z,8.40
2018-06-29T20:46:04.080Z,8.38
2018-06-29T20:48:32.076Z,8.35
2018-06-29T20:51:00.206Z,9.83
2018-06-29T20:53:28.165Z,10.53
2018-06-29T20:55:57.204Z,9.25
2018-06-29T20:58:25.043Z,10.03
2018-06-29T21:00:53.055Z,11.35
2018-06-29T21:03:21.113Z,11.15
2018-06-29T21:05:48.971Z,11.80
2018-06-29T21:08:16.952Z,11.63
2018-06-29T21:10:44.983Z,13.65
2018-06-29T21:13:13.099Z,12.90
2018-06-29T21:15:41.007Z,13.32
2018-06-29T21:18:09.008Z,13.72
2018-06-29T21:20:36.961Z,15.20
2018-06-29T21:23:05.289Z,15.45
2018-06-29T21:25:33.190Z,15.40
2018-06-29T21:28:02.049Z,15.78
2018-06-29T21:30:29.878Z,16.57
2018-06-29T21:32:59.731Z,16.23
2018-06-29T21:35:27.503Z,16.48
2018-06-29T21:37:55.312Z,17.30
2018-06-29T21:40:23.301Z,18.52
2018-06-29T21:42:51.311Z,18.62
2018-06-29T21:45:19.137Z,18.20
2018-06-29T21:47:46.991Z,18.92
2018-06-29T21:50:14.845Z,19.90
2018-06-29T21:52:53.169Z,18.40
2018-06-29T21:55:21.037Z,21.05
2018-06-29T21:57:48.836Z,22.82
2018-06-29T22:00:16.673Z,22.52
2018-06-29T22:02:44.497Z,22.73
2018-06-29T22:05:12.317Z,23.60
2018-06-29T22:07:40.260Z,22.82
2018-06-29T22:10:08.856Z,22.93
2018-06-29T22:12:36.666Z,24.05
2018-06-29T22:15:09.191Z,22.67
2018-06-29T22:17:36.987Z,24.37
2018-06-29T22:20:04.952Z,24.65
2018-06-29T22:22:32.741Z,23.30
2018-06-29T22:25:00.553Z,23.50
2018-06-29T22:27:28.381Z,25.48
2018-06-29T22:29:56.174Z,25.25
2018-06-29T22:32:23.976Z,26.33
2018-06-29T22:34:51.738Z,25.27
2018-06-29T22:40:50.666Z,24.30
2018-06-29T22:43:18.507Z,25.27
2018-06-29T22:45:46.407Z,27.67
2018-06-29T22:48:14.157Z,27.02
2018-06-29T22:50:41.954Z,29.30
2018-06-29T22:53:10.806Z,27.45
2018-06-29T22:55:38.601Z,26.27
2018-06-29T22:58:06.389Z,28.55
2018-06-29T23:00:34.341Z,28.32
2018-06-29T23:03:05.994Z,27.48
2018-06-29T23:05:33.820Z,28.95
2018-06-29T23:08:01.631Z,28.52
2018-06-29T23:10:29.487Z,27.93
2018-06-29T23:12:57.274Z,28.80
2018-06-29T23:15:35.180Z,29.37
2018-06-29T23:18:03.110Z,25.20
2018-06-29T23:20:30.963Z,27.73
2018-06-29T23:22:58.811Z,28.37
2018-06-29T23:25:26.633Z,28.95
2018-06-29T23:27:54.632Z,29.72
2018-06-29T23:30:22.540Z,29.65
2018-06-29T23:32:50.369Z,30.60
2018-06-29T23:35:25.553Z,29.67
2018-06-29T23:37:53.411Z,28.83
2018-06-29T23:40:21.330Z,33.20
2018-06-29T23:42:49.168Z,34.00
2018-06-29T23:45:17.178Z,30.85
2018-06-29T23:47:45.235Z,30.73
2018-06-29T23:50:13.289Z,32.42
2018-06-29T23:52:41.209Z,30.77
2018-06-29T23:55:09.068Z,35.17
2018-06-29T23:57:36.884Z,33.13
